EJU1KP LFPO-EGKK
Flight info
| Callsign | EJU1KP |
|---|---|
| Flight time | 0h 45m |
| Altitude | 24000 |
| Route | OPALE DCT KESAX DCT KUNAV |
| Aircraft | A320/M-SDE3FGHIRWY/LB1 |
Departure
| Time | 2026-05-05 19:38 |
|---|---|
| Airport | Paris-Orly Airport (LFPO) |
Arrival
| Time | 2026-05-05 20:23 |
|---|---|
| Airport | London Gatwick Airport (EGKK) |
| Time | Latitude | Longitude | Altitude | Speed | Heading |
|---|---|---|---|---|---|
| 2026-05-05 18:53 | 48.72693 | 2.36592 | 295 ft | 0 kts | 4° |
| 2026-05-05 18:57 | 48.72692 | 2.36592 | 295 ft | 0 kts | 4° |
| 2026-05-05 19:24 | 48.72674 | 2.36590 | 296 ft | 4 kts | 5° |
| 2026-05-05 19:25 | 48.72647 | 2.36586 | 296 ft | 4 kts | 4° |
| 2026-05-05 19:25 | 48.72623 | 2.36584 | 291 ft | 2 kts | 1° |
| 2026-05-05 19:25 | 48.72598 | 2.36587 | 291 ft | 4 kts | 335° |
| 2026-05-05 19:25 | 48.72582 | 2.36610 | 291 ft | 4 kts | 277° |
| 2026-05-05 19:26 | 48.72586 | 2.36647 | 291 ft | 4 kts | 247° |
| 2026-05-05 19:26 | 48.72592 | 2.36664 | 291 ft | 0 kts | 247° |
| 2026-05-05 19:30 | 48.72591 | 2.36664 | 290 ft | 1 kts | 247° |
| 2026-05-05 19:31 | 48.72588 | 2.36652 | 290 ft | 3 kts | 248° |
| 2026-05-05 19:31 | 48.72579 | 2.36618 | 290 ft | 4 kts | 249° |
| 2026-05-05 19:31 | 48.72564 | 2.36546 | 290 ft | 9 kts | 255° |
| 2026-05-05 19:31 | 48.72546 | 2.36447 | 294 ft | 11 kts | 253° |
| 2026-05-05 19:32 | 48.72527 | 2.36336 | 294 ft | 11 kts | 256° |
| 2026-05-05 19:32 | 48.72504 | 2.36214 | 295 ft | 15 kts | 253° |
| 2026-05-05 19:32 | 48.72486 | 2.36116 | 290 ft | 5 kts | 256° |
| 2026-05-05 19:32 | 48.72479 | 2.36070 | 290 ft | 3 kts | 257° |
| 2026-05-05 19:33 | 48.72471 | 2.35971 | 291 ft | 21 kts | 270° |
| 2026-05-05 19:33 | 48.72474 | 2.35870 | 290 ft | 8 kts | 274° |
| 2026-05-05 19:33 | 48.72478 | 2.35803 | 290 ft | 5 kts | 274° |
| 2026-05-05 19:33 | 48.72478 | 2.35757 | 290 ft | 5 kts | 269° |
| 2026-05-05 19:34 | 48.72467 | 2.35696 | 290 ft | 9 kts | 245° |
| 2026-05-05 19:34 | 48.72420 | 2.35616 | 290 ft | 11 kts | 194° |
| 2026-05-05 19:34 | 48.72373 | 2.35635 | 294 ft | 5 kts | 165° |
| 2026-05-05 19:35 | 48.72321 | 2.35635 | 290 ft | 11 kts | 193° |
| 2026-05-05 19:35 | 48.72240 | 2.35601 | 290 ft | 11 kts | 187° |
| 2026-05-05 19:35 | 48.72179 | 2.35615 | 292 ft | 7 kts | 167° |
| 2026-05-05 19:35 | 48.72172 | 2.35618 | 291 ft | 3 kts | 167° |
| 2026-05-05 19:36 | 48.72090 | 2.35667 | 289 ft | 7 kts | 151° |
| 2026-05-05 19:36 | 48.72065 | 2.35689 | 289 ft | 10 kts | 148° |
| 2026-05-05 19:36 | 48.72007 | 2.35801 | 293 ft | 13 kts | 121° |
| 2026-05-05 19:36 | 48.71967 | 2.35907 | 289 ft | 11 kts | 118° |
| 2026-05-05 19:37 | 48.71962 | 2.35960 | 291 ft | 1 kts | 76° |
| 2026-05-05 19:37 | 48.71987 | 2.36134 | 294 ft | 52 kts | 76° |
| 2026-05-05 19:37 | 48.72154 | 2.36991 | 291 ft | 115 kts | 75° |
| 2026-05-05 19:37 | 48.72417 | 2.38408 | 294 ft | 162 kts | 73° |
| 2026-05-05 19:38 | 48.72638 | 2.39520 | 641 ft | 162 kts | 70° |
| 2026-05-05 19:38 | 48.72933 | 2.41162 | 1387 ft | 162 kts | 71° |
| 2026-05-05 19:38 | 48.73239 | 2.42840 | 1946 ft | 173 kts | 70° |
| 2026-05-05 19:38 | 48.73588 | 2.44700 | 2245 ft | 195 kts | 71° |
| 2026-05-05 19:39 | 48.73966 | 2.46776 | 2569 ft | 215 kts | 74° |
| 2026-05-05 19:39 | 48.74156 | 2.49120 | 3097 ft | 230 kts | 83° |
| 2026-05-05 19:39 | 48.74250 | 2.51576 | 3816 ft | 235 kts | 84° |
| 2026-05-05 19:39 | 48.74321 | 2.54075 | 4569 ft | 240 kts | 85° |
| 2026-05-05 19:40 | 48.74233 | 2.56668 | 5087 ft | 260 kts | 105° |
| 2026-05-05 19:40 | 48.73185 | 2.58961 | 5731 ft | 276 kts | 142° |
| 2026-05-05 19:40 | 48.71397 | 2.60006 | 6503 ft | 283 kts | 176° |
| 2026-05-05 19:40 | 48.69473 | 2.59407 | 7230 ft | 288 kts | 210° |
| 2026-05-05 19:41 | 48.68057 | 2.57324 | 8039 ft | 288 kts | 243° |
| 2026-05-05 19:41 | 48.67499 | 2.54435 | 8828 ft | 288 kts | 266° |
| 2026-05-05 19:41 | 48.67337 | 2.51404 | 9650 ft | 291 kts | 268° |
| 2026-05-05 19:41 | 48.67195 | 2.48323 | 10299 ft | 299 kts | 270° |
| 2026-05-05 19:42 | 48.67518 | 2.45134 | 10514 ft | 319 kts | 293° |
| 2026-05-05 19:42 | 48.68770 | 2.42311 | 10893 ft | 330 kts | 319° |
| 2026-05-05 19:42 | 48.70744 | 2.40545 | 11483 ft | 335 kts | 343° |
| 2026-05-05 19:42 | 48.73043 | 2.39879 | 12125 ft | 339 kts | 352° |
| 2026-05-05 19:43 | 48.75402 | 2.39372 | 12672 ft | 345 kts | 352° |
| 2026-05-05 19:43 | 48.77784 | 2.38890 | 12811 ft | 346 kts | 353° |
| 2026-05-05 19:43 | 48.80175 | 2.38410 | 12918 ft | 349 kts | 352° |
| 2026-05-05 19:43 | 48.82560 | 2.37648 | 13614 ft | 352 kts | 347° |
| 2026-05-05 19:44 | 48.84949 | 2.36801 | 14291 ft | 353 kts | 347° |
| 2026-05-05 19:44 | 48.87346 | 2.35946 | 14931 ft | 355 kts | 346° |
| 2026-05-05 19:44 | 48.89763 | 2.35078 | 15554 ft | 358 kts | 346° |
| 2026-05-05 19:44 | 48.92194 | 2.34201 | 16174 ft | 361 kts | 346° |
| 2026-05-05 19:45 | 48.94645 | 2.33315 | 16797 ft | 363 kts | 346° |
| 2026-05-05 19:45 | 48.97115 | 2.32425 | 17405 ft | 366 kts | 346° |
| 2026-05-05 19:45 | 48.99608 | 2.31526 | 18017 ft | 369 kts | 346° |
| 2026-05-05 19:45 | 49.02116 | 2.30622 | 18544 ft | 372 kts | 346° |
| 2026-05-05 19:46 | 49.04643 | 2.29710 | 18778 ft | 374 kts | 346° |
| 2026-05-05 19:46 | 49.07175 | 2.28789 | 18833 ft | 374 kts | 347° |
| 2026-05-05 19:46 | 49.09711 | 2.27862 | 18853 ft | 375 kts | 347° |
| 2026-05-05 19:46 | 49.12265 | 2.26924 | 19238 ft | 378 kts | 347° |
| 2026-05-05 19:47 | 49.14827 | 2.25984 | 19795 ft | 380 kts | 347° |
| 2026-05-05 19:47 | 49.17404 | 2.25043 | 20312 ft | 382 kts | 347° |
| 2026-05-05 19:47 | 49.19999 | 2.24093 | 20823 ft | 384 kts | 347° |
| 2026-05-05 19:47 | 49.22605 | 2.23134 | 21338 ft | 387 kts | 348° |
| 2026-05-05 19:48 | 49.25231 | 2.22165 | 21830 ft | 389 kts | 347° |
| 2026-05-05 19:48 | 49.27869 | 2.21188 | 22349 ft | 390 kts | 348° |
| 2026-05-05 19:48 | 49.30508 | 2.20206 | 22853 ft | 392 kts | 347° |
| 2026-05-05 19:48 | 49.33164 | 2.19216 | 23333 ft | 394 kts | 347° |
| 2026-05-05 19:49 | 49.35835 | 2.18219 | 23726 ft | 396 kts | 348° |
| 2026-05-05 19:49 | 49.38510 | 2.17226 | 23835 ft | 394 kts | 347° |
| 2026-05-05 19:49 | 49.41116 | 2.16255 | 23867 ft | 379 kts | 347° |
| 2026-05-05 19:49 | 49.43657 | 2.15265 | 23870 ft | 376 kts | 344° |
| 2026-05-05 19:50 | 49.46111 | 2.13896 | 23867 ft | 375 kts | 340° |
| 2026-05-05 19:50 | 49.48553 | 2.12481 | 23860 ft | 375 kts | 340° |
| 2026-05-05 19:50 | 49.50961 | 2.11091 | 23871 ft | 375 kts | 341° |
| 2026-05-05 19:50 | 49.53415 | 2.09679 | 23865 ft | 380 kts | 341° |
| 2026-05-05 19:51 | 49.55924 | 2.08243 | 24120 ft | 387 kts | 341° |
| 2026-05-05 19:51 | 49.58455 | 2.06790 | 24542 ft | 389 kts | 341° |
| 2026-05-05 19:51 | 49.60987 | 2.05335 | 25017 ft | 389 kts | 341° |
| 2026-05-05 19:51 | 49.63520 | 2.03876 | 25481 ft | 389 kts | 341° |
| 2026-05-05 19:52 | 49.66061 | 2.02410 | 25812 ft | 391 kts | 341° |
| 2026-05-05 19:52 | 49.68602 | 2.00939 | 25879 ft | 390 kts | 341° |
| 2026-05-05 19:52 | 49.71136 | 1.99474 | 25868 ft | 389 kts | 341° |
| 2026-05-05 19:52 | 49.73673 | 1.98007 | 25882 ft | 389 kts | 340° |
| 2026-05-05 19:53 | 49.76207 | 1.96537 | 25885 ft | 389 kts | 341° |
| 2026-05-05 19:53 | 49.78741 | 1.95065 | 25898 ft | 389 kts | 340° |
| 2026-05-05 19:53 | 49.81275 | 1.93591 | 25895 ft | 388 kts | 340° |
| 2026-05-05 19:53 | 49.83802 | 1.92119 | 25896 ft | 388 kts | 341° |
| 2026-05-05 19:54 | 49.86334 | 1.90640 | 25895 ft | 389 kts | 341° |
| 2026-05-05 19:54 | 49.88848 | 1.89091 | 25897 ft | 389 kts | 335° |
| 2026-05-05 19:54 | 49.91190 | 1.86976 | 25897 ft | 391 kts | 325° |
| 2026-05-05 19:54 | 49.93332 | 1.84381 | 25898 ft | 391 kts | 322° |
| 2026-05-05 19:55 | 49.95458 | 1.81758 | 25903 ft | 391 kts | 322° |
| 2026-05-05 19:55 | 49.97587 | 1.79133 | 25897 ft | 391 kts | 322° |
| 2026-05-05 19:55 | 49.99718 | 1.76507 | 25896 ft | 391 kts | 322° |
| 2026-05-05 19:55 | 50.01849 | 1.73876 | 25889 ft | 392 kts | 322° |
| 2026-05-05 19:56 | 50.03985 | 1.71237 | 25888 ft | 392 kts | 322° |
| 2026-05-05 19:56 | 50.06120 | 1.68598 | 25896 ft | 392 kts | 322° |
| 2026-05-05 19:56 | 50.08245 | 1.65932 | 25894 ft | 392 kts | 321° |
| 2026-05-05 19:56 | 50.10328 | 1.63194 | 25901 ft | 392 kts | 319° |
| 2026-05-05 19:57 | 50.12378 | 1.60401 | 25903 ft | 392 kts | 319° |
| 2026-05-05 19:57 | 50.14417 | 1.57582 | 25907 ft | 392 kts | 319° |
| 2026-05-05 19:57 | 50.16455 | 1.54762 | 25906 ft | 392 kts | 319° |
| 2026-05-05 19:57 | 50.18497 | 1.51942 | 25900 ft | 392 kts | 319° |
| 2026-05-05 19:58 | 50.20542 | 1.49128 | 25888 ft | 392 kts | 319° |
| 2026-05-05 19:58 | 50.22590 | 1.46316 | 25889 ft | 392 kts | 319° |
| 2026-05-05 19:58 | 50.24645 | 1.43506 | 25898 ft | 393 kts | 319° |
| 2026-05-05 19:58 | 50.26703 | 1.40699 | 25902 ft | 393 kts | 319° |
| 2026-05-05 19:59 | 50.28758 | 1.37901 | 25485 ft | 392 kts | 319° |
| 2026-05-05 19:59 | 50.30808 | 1.35104 | 24972 ft | 390 kts | 319° |
| 2026-05-05 19:59 | 50.32838 | 1.32317 | 24509 ft | 387 kts | 319° |
| 2026-05-05 19:59 | 50.34854 | 1.29544 | 24016 ft | 385 kts | 319° |
| 2026-05-05 20:00 | 50.36858 | 1.26794 | 23603 ft | 381 kts | 319° |
| 2026-05-05 20:00 | 50.38825 | 1.24092 | 23055 ft | 380 kts | 319° |
| 2026-05-05 20:00 | 50.40796 | 1.21377 | 22560 ft | 377 kts | 320° |
| 2026-05-05 20:00 | 50.42754 | 1.18674 | 22160 ft | 372 kts | 319° |
| 2026-05-05 20:01 | 50.44691 | 1.15992 | 21659 ft | 370 kts | 320° |
| 2026-05-05 20:01 | 50.46612 | 1.13328 | 21185 ft | 368 kts | 319° |
| 2026-05-05 20:01 | 50.48520 | 1.10679 | 20771 ft | 365 kts | 319° |
| 2026-05-05 20:01 | 50.50417 | 1.08048 | 20352 ft | 362 kts | 319° |
| 2026-05-05 20:02 | 50.52233 | 1.05312 | 19886 ft | 361 kts | 314° |
| 2026-05-05 20:02 | 50.53932 | 1.02429 | 19425 ft | 360 kts | 314° |
| 2026-05-05 20:02 | 50.55627 | 0.99573 | 19006 ft | 357 kts | 314° |
| 2026-05-05 20:02 | 50.57318 | 0.96736 | 18628 ft | 354 kts | 314° |
| 2026-05-05 20:03 | 50.59003 | 0.93909 | 18234 ft | 352 kts | 315° |
| 2026-05-05 20:03 | 50.60664 | 0.91115 | 17644 ft | 346 kts | 314° |
| 2026-05-05 20:03 | 50.62269 | 0.88395 | 17220 ft | 332 kts | 314° |
| 2026-05-05 20:03 | 50.63810 | 0.85776 | 16835 ft | 322 kts | 315° |
| 2026-05-05 20:04 | 50.65331 | 0.83191 | 16447 ft | 321 kts | 314° |
| 2026-05-05 20:04 | 50.66847 | 0.80620 | 16071 ft | 320 kts | 314° |
| 2026-05-05 20:04 | 50.68335 | 0.78015 | 15632 ft | 322 kts | 312° |
| 2026-05-05 20:04 | 50.69780 | 0.75282 | 15101 ft | 326 kts | 310° |
| 2026-05-05 20:05 | 50.71205 | 0.72468 | 14581 ft | 330 kts | 310° |
| 2026-05-05 20:05 | 50.72632 | 0.69607 | 14054 ft | 334 kts | 309° |
| 2026-05-05 20:05 | 50.74063 | 0.66736 | 13734 ft | 330 kts | 309° |
| 2026-05-05 20:05 | 50.75485 | 0.63903 | 13304 ft | 329 kts | 309° |
| 2026-05-05 20:06 | 50.76909 | 0.61088 | 12910 ft | 325 kts | 310° |
| 2026-05-05 20:06 | 50.78295 | 0.58355 | 12526 ft | 311 kts | 310° |
| 2026-05-05 20:06 | 50.79626 | 0.55719 | 12018 ft | 303 kts | 310° |
| 2026-05-05 20:06 | 50.80913 | 0.53172 | 11449 ft | 298 kts | 310° |
| 2026-05-05 20:07 | 50.82203 | 0.50627 | 10841 ft | 295 kts | 310° |
| 2026-05-05 20:07 | 50.83480 | 0.48116 | 10274 ft | 291 kts | 310° |
| 2026-05-05 20:07 | 50.84735 | 0.45640 | 9703 ft | 286 kts | 310° |
| 2026-05-05 20:07 | 50.85971 | 0.43199 | 9152 ft | 285 kts | 310° |
| 2026-05-05 20:08 | 50.87214 | 0.40746 | 8969 ft | 279 kts | 310° |
| 2026-05-05 20:08 | 50.88282 | 0.38190 | 8991 ft | 280 kts | 292° |
| 2026-05-05 20:08 | 50.88803 | 0.35253 | 8998 ft | 282 kts | 284° |
| 2026-05-05 20:08 | 50.89215 | 0.32217 | 9000 ft | 282 kts | 283° |
| 2026-05-05 20:09 | 50.89615 | 0.29176 | 8998 ft | 282 kts | 283° |
| 2026-05-05 20:09 | 50.90011 | 0.26131 | 9000 ft | 282 kts | 283° |
| 2026-05-05 20:09 | 50.90408 | 0.23085 | 8990 ft | 282 kts | 283° |
| 2026-05-05 20:09 | 50.90803 | 0.20041 | 8991 ft | 282 kts | 283° |
| 2026-05-05 20:10 | 50.91197 | 0.16994 | 8983 ft | 282 kts | 283° |
| 2026-05-05 20:10 | 50.91591 | 0.13942 | 8986 ft | 283 kts | 283° |
| 2026-05-05 20:10 | 50.91985 | 0.10894 | 8975 ft | 283 kts | 283° |
| 2026-05-05 20:10 | 50.92379 | 0.07843 | 8966 ft | 282 kts | 283° |
| 2026-05-05 20:11 | 50.92772 | 0.04797 | 8964 ft | 282 kts | 283° |
| 2026-05-05 20:11 | 50.93164 | 0.01746 | 8959 ft | 282 kts | 283° |
| 2026-05-05 20:11 | 50.93556 | -0.01302 | 8944 ft | 282 kts | 283° |
| 2026-05-05 20:11 | 50.93943 | -0.04347 | 8944 ft | 282 kts | 283° |
| 2026-05-05 20:12 | 50.94326 | -0.07384 | 8687 ft | 279 kts | 283° |
| 2026-05-05 20:12 | 50.94705 | -0.10397 | 8300 ft | 278 kts | 283° |
| 2026-05-05 20:12 | 50.95081 | -0.13398 | 7923 ft | 277 kts | 283° |
| 2026-05-05 20:12 | 50.95454 | -0.16384 | 7553 ft | 275 kts | 283° |
| 2026-05-05 20:13 | 50.95821 | -0.19353 | 7198 ft | 274 kts | 283° |
| 2026-05-05 20:13 | 50.96186 | -0.22307 | 6838 ft | 272 kts | 283° |
| 2026-05-05 20:13 | 50.96546 | -0.25249 | 6485 ft | 271 kts | 283° |
| 2026-05-05 20:13 | 50.97000 | -0.28130 | 6100 ft | 268 kts | 290° |
| 2026-05-05 20:14 | 50.97609 | -0.30913 | 5702 ft | 267 kts | 292° |
| 2026-05-05 20:14 | 50.98235 | -0.33678 | 5312 ft | 266 kts | 292° |
| 2026-05-05 20:14 | 50.98859 | -0.36433 | 4973 ft | 263 kts | 292° |
| 2026-05-05 20:14 | 50.99459 | -0.39104 | 4845 ft | 251 kts | 292° |
| 2026-05-05 20:15 | 51.00029 | -0.41664 | 4710 ft | 241 kts | 292° |
| 2026-05-05 20:15 | 51.00569 | -0.44089 | 4551 ft | 233 kts | 292° |
| 2026-05-05 20:15 | 51.01105 | -0.46496 | 4265 ft | 230 kts | 292° |
| 2026-05-05 20:15 | 51.01641 | -0.48881 | 3950 ft | 229 kts | 292° |
| 2026-05-05 20:16 | 51.02188 | -0.51259 | 3623 ft | 228 kts | 295° |
| 2026-05-05 20:16 | 51.03032 | -0.53343 | 3321 ft | 223 kts | 317° |
| 2026-05-05 20:16 | 51.04275 | -0.54761 | 3052 ft | 218 kts | 337° |
| 2026-05-05 20:16 | 51.05730 | -0.55419 | 3007 ft | 219 kts | 356° |
| 2026-05-05 20:17 | 51.07250 | -0.55279 | 3008 ft | 220 kts | 14° |
| 2026-05-05 20:17 | 51.08638 | -0.54349 | 3010 ft | 212 kts | 33° |
| 2026-05-05 20:17 | 51.09696 | -0.52835 | 3006 ft | 201 kts | 52° |
| 2026-05-05 20:17 | 51.10371 | -0.50957 | 3022 ft | 188 kts | 69° |
| 2026-05-05 20:18 | 51.10681 | -0.49051 | 3011 ft | 168 kts | 77° |
| 2026-05-05 20:18 | 51.10904 | -0.47323 | 3024 ft | 152 kts | 76° |
| 2026-05-05 20:18 | 51.11111 | -0.45711 | 3011 ft | 146 kts | 76° |
| 2026-05-05 20:18 | 51.11321 | -0.44146 | 3015 ft | 144 kts | 76° |
| 2026-05-05 20:19 | 51.11535 | -0.42590 | 2936 ft | 143 kts | 76° |
| 2026-05-05 20:19 | 51.11750 | -0.41046 | 2793 ft | 142 kts | 75° |
| 2026-05-05 20:19 | 51.11965 | -0.39507 | 2615 ft | 142 kts | 76° |
| 2026-05-05 20:19 | 51.12179 | -0.37976 | 2432 ft | 142 kts | 76° |
| 2026-05-05 20:20 | 51.12393 | -0.36450 | 2238 ft | 141 kts | 77° |
| 2026-05-05 20:20 | 51.12605 | -0.34930 | 2043 ft | 140 kts | 77° |
| 2026-05-05 20:20 | 51.12815 | -0.33423 | 1859 ft | 139 kts | 77° |
| 2026-05-05 20:20 | 51.13025 | -0.31921 | 1671 ft | 139 kts | 77° |
| 2026-05-05 20:21 | 51.13233 | -0.30426 | 1478 ft | 138 kts | 78° |
| 2026-05-05 20:21 | 51.13440 | -0.28942 | 1288 ft | 138 kts | 78° |
| 2026-05-05 20:21 | 51.13630 | -0.27445 | 1099 ft | 138 kts | 78° |
| 2026-05-05 20:21 | 51.13845 | -0.25960 | 898 ft | 137 kts | 75° |
| 2026-05-05 20:22 | 51.14059 | -0.24485 | 680 ft | 136 kts | 78° |
| 2026-05-05 20:22 | 51.14257 | -0.23002 | 561 ft | 137 kts | 77° |
| 2026-05-05 20:22 | 51.14473 | -0.21533 | 359 ft | 135 kts | 77° |
| 2026-05-05 20:22 | 51.14669 | -0.20076 | 206 ft | 130 kts | 77° |
| 2026-05-05 20:23 | 51.14832 | -0.18910 | 212 ft | 74 kts | 77° |
| 2026-05-05 20:23 | 51.14902 | -0.18595 | 210 ft | 21 kts | 42° |
| 2026-05-05 20:23 | 51.14990 | -0.18412 | 210 ft | 19 kts | 49° |
| 2026-05-05 20:23 | 51.15035 | -0.18327 | 203 ft | 0 kts | 51° |
| 2026-05-05 20:24 | 51.15037 | -0.18323 | 203 ft | 2 kts | 51° |
| 2026-05-05 20:24 | 51.15063 | -0.18271 | 210 ft | 10 kts | 51° |
| 2026-05-05 20:24 | 51.15111 | -0.18175 | 211 ft | 11 kts | 54° |
| 2026-05-05 20:25 | 51.15153 | -0.18071 | 205 ft | 12 kts | 26° |
| 2026-05-05 20:25 | 51.15226 | -0.18093 | 204 ft | 8 kts | 341° |
| 2026-05-05 20:25 | 51.15282 | -0.18110 | 208 ft | 8 kts | 355° |
| 2026-05-05 20:25 | 51.15341 | -0.18122 | 204 ft | 9 kts | 349° |
| 2026-05-05 20:26 | 51.15408 | -0.18142 | 214 ft | 11 kts | 349° |
| 2026-05-05 20:26 | 51.15421 | -0.18146 | 204 ft | 0 kts | 348° |
| 2026-05-05 20:26 | 51.15431 | -0.18150 | 204 ft | 4 kts | 345° |
| 2026-05-05 20:27 | 51.15490 | -0.18185 | 213 ft | 11 kts | 340° |